Terminal Aerodrome Forecast
Issued by NWS Cleveland, OH

Home | Current Version | Previous Version | Graphics & Text | Print | Product List | Glossary Off
Versions: 1 2 3 4 5 6 7 8 9 10 11 12 13 14 15 16 17 18 19 20 21 22 23 24 25 26

000
FTUS41 KCLE 242100 AAB
TAFTOL
TAF AMD
KTOL 242142Z 2422/2518 30012G22KT 1 1/2SM -SHRA BR VCTS OVC004CB
      TEMPO 2422/2423 5SM -SHRA BR OVC008
     FM242300 29015G25KT 4SM -SHRA BR VCTS OVC010CB
     FM250000 26022G40KT P6SM -SHRA OVC012
     FM250700 25015G30KT 3SM -SHSN OVC012
     FM251000 25012G22KT P6SM OVC015
     FM251400 26012G24KT P6SM -SHSN OVC024=

USA.gov is the U.S. government's official web portal to all federal, state and local government web resources and services.